sensor_id;sensor_type;location;lat;lon;timestamp;P1;durP1;ratioP1;P2;durP2;ratioP2
28834;SDS011;15969;51.536;11.884;2022-12-24T00:02:11;3.40;;;3.10;;
28834;SDS011;15969;51.536;11.884;2022-12-24T00:04:37;4.17;;;3.20;;
28834;SDS011;15969;51.536;11.884;2022-12-24T00:07:03;3.80;;;2.63;;
28834;SDS011;15969;51.536;11.884;2022-12-24T00:09:28;3.57;;;2.80;;
28834;SDS011;15969;51.536;11.884;2022-12-24T00:11:54;4.80;;;3.10;;
28834;SDS011;15969;51.536;11.884;2022-12-24T00:14:20;4.63;;;3.50;;
28834;SDS011;15969;51.536;11.884;2022-12-24T00:16:46;5.90;;;2.90;;
28834;SDS011;15969;51.536;11.884;2022-12-24T00:19:12;2.90;;;2.70;;
28834;SDS011;15969;51.536;11.884;2022-12-24T00:21:37;5.03;;;2.53;;
28834;SDS011;15969;51.536;11.884;2022-12-24T00:24:03;4.40;;;2.57;;
28834;SDS011;15969;51.536;11.884;2022-12-24T00:26:30;2.60;;;2.10;;
28834;SDS011;15969;51.536;11.884;2022-12-24T00:28:57;3.63;;;2.30;;
28834;SDS011;15969;51.536;11.884;2022-12-24T00:31:22;2.93;;;2.20;;
28834;SDS011;15969;51.536;11.884;2022-12-24T00:33:48;2.47;;;1.60;;
28834;SDS011;15969;51.536;11.884;2022-12-24T00:36:14;3.10;;;1.87;;
28834;SDS011;15969;51.536;11.884;2022-12-24T00:38:41;3.67;;;2.00;;
28834;SDS011;15969;51.536;11.884;2022-12-24T00:41:07;3.20;;;1.80;;
28834;SDS011;15969;51.536;11.884;2022-12-24T00:46:26;3.57;;;1.90;;
28834;SDS011;15969;51.536;11.884;2022-12-24T00:48:54;1.70;;;1.60;;
28834;SDS011;15969;51.536;11.884;2022-12-24T00:51:20;1.87;;;1.50;;
28834;SDS011;15969;51.536;11.884;2022-12-24T00:53:47;2.33;;;1.80;;
28834;SDS011;15969;51.536;11.884;2022-12-24T00:56:13;2.77;;;1.70;;
28834;SDS011;15969;51.536;11.884;2022-12-24T00:58:39;2.47;;;1.57;;
28834;SDS011;15969;51.536;11.884;2022-12-24T01:01:04;2.73;;;1.73;;
28834;SDS011;15969;51.536;11.884;2022-12-24T01:03:30;7.17;;;1.77;;
28834;SDS011;15969;51.536;11.884;2022-12-24T01:08:31;3.10;;;1.90;;
28834;SDS011;15969;51.536;11.884;2022-12-24T01:10:57;2.23;;;2.03;;
28834;SDS011;15969;51.536;11.884;2022-12-24T01:13:23;5.37;;;1.97;;
28834;SDS011;15969;51.536;11.884;2022-12-24T01:15:49;2.80;;;1.83;;
28834;SDS011;15969;51.536;11.884;2022-12-24T01:18:15;2.47;;;2.10;;
28834;SDS011;15969;51.536;11.884;2022-12-24T01:20:40;3.17;;;2.00;;
28834;SDS011;15969;51.536;11.884;2022-12-24T01:23:06;4.20;;;2.20;;
28834;SDS011;15969;51.536;11.884;2022-12-24T01:25:32;2.43;;;1.90;;
28834;SDS011;15969;51.536;11.884;2022-12-24T01:27:58;3.50;;;2.23;;
28834;SDS011;15969;51.536;11.884;2022-12-24T01:30:23;3.93;;;1.87;;
28834;SDS011;15969;51.536;11.884;2022-12-24T01:32:49;6.03;;;2.47;;
28834;SDS011;15969;51.536;11.884;2022-12-24T01:35:15;5.27;;;2.20;;
28834;SDS011;15969;51.536;11.884;2022-12-24T01:37:41;6.10;;;1.90;;
28834;SDS011;15969;51.536;11.884;2022-12-24T01:40:07;4.50;;;2.10;;
28834;SDS011;15969;51.536;11.884;2022-12-24T01:42:58;3.83;;;2.13;;
28834;SDS011;15969;51.536;11.884;2022-12-24T01:45:46;5.00;;;2.33;;
28834;SDS011;15969;51.536;11.884;2022-12-24T01:51:14;4.07;;;2.13;;
28834;SDS011;15969;51.536;11.884;2022-12-24T01:54:14;4.30;;;2.30;;
28834;SDS011;15969;51.536;11.884;2022-12-24T01:57:11;5.37;;;2.10;;
28834;SDS011;15969;51.536;11.884;2022-12-24T01:59:44;5.77;;;2.30;;
28834;SDS011;15969;51.536;11.884;2022-12-24T02:02:13;4.13;;;2.10;;
28834;SDS011;15969;51.536;11.884;2022-12-24T02:04:41;3.73;;;1.90;;
28834;SDS011;15969;51.536;11.884;2022-12-24T02:07:20;4.10;;;2.07;;
28834;SDS011;15969;51.536;11.884;2022-12-24T02:09:45;6.67;;;2.97;;
28834;SDS011;15969;51.536;11.884;2022-12-24T02:12:13;4.90;;;2.00;;
28834;SDS011;15969;51.536;11.884;2022-12-24T02:14:39;3.70;;;2.00;;
28834;SDS011;15969;51.536;11.884;2022-12-24T02:17:20;6.30;;;2.10;;
28834;SDS011;15969;51.536;11.884;2022-12-24T02:20:16;4.53;;;1.90;;
28834;SDS011;15969;51.536;11.884;2022-12-24T02:23:18;6.20;;;2.30;;
28834;SDS011;15969;51.536;11.884;2022-12-24T02:26:17;5.60;;;2.20;;
28834;SDS011;15969;51.536;11.884;2022-12-24T02:29:32;6.20;;;2.40;;
28834;SDS011;15969;51.536;11.884;2022-12-24T02:32:31;8.67;;;2.27;;
28834;SDS011;15969;51.536;11.884;2022-12-24T02:38:04;9.43;;;2.60;;
28834;SDS011;15969;51.536;11.884;2022-12-24T02:41:04;7.30;;;2.63;;
28834;SDS011;15969;51.536;11.884;2022-12-24T02:43:38;6.07;;;2.73;;
28834;SDS011;15969;51.536;11.884;2022-12-24T02:46:12;9.87;;;3.27;;
28834;SDS011;15969;51.536;11.884;2022-12-24T02:48:43;9.77;;;2.60;;
28834;SDS011;15969;51.536;11.884;2022-12-24T02:51:12;5.07;;;2.30;;
28834;SDS011;15969;51.536;11.884;2022-12-24T02:53:38;7.43;;;2.90;;
28834;SDS011;15969;51.536;11.884;2022-12-24T03:01:31;7.17;;;3.20;;
28834;SDS011;15969;51.536;11.884;2022-12-24T03:04:43;6.43;;;2.40;;
28834;SDS011;15969;51.536;11.884;2022-12-24T03:07:32;8.27;;;2.80;;
28834;SDS011;15969;51.536;11.884;2022-12-24T03:10:23;7.17;;;2.63;;
28834;SDS011;15969;51.536;11.884;2022-12-24T03:13:00;5.90;;;2.40;;
28834;SDS011;15969;51.536;11.884;2022-12-24T03:15:31;6.63;;;2.50;;
28834;SDS011;15969;51.536;11.884;2022-12-24T03:17:59;6.07;;;2.70;;
28834;SDS011;15969;51.536;11.884;2022-12-24T03:20:32;9.77;;;2.80;;
28834;SDS011;15969;51.536;11.884;2022-12-24T03:23:02;11.57;;;3.13;;
28834;SDS011;15969;51.536;11.884;2022-12-24T03:25:29;6.10;;;1.90;;
28834;SDS011;15969;51.536;11.884;2022-12-24T03:27:56;5.07;;;2.10;;
28834;SDS011;15969;51.536;11.884;2022-12-24T03:30:23;4.47;;;2.03;;
28834;SDS011;15969;51.536;11.884;2022-12-24T03:32:50;4.53;;;2.13;;
28834;SDS011;15969;51.536;11.884;2022-12-24T03:35:16;5.37;;;2.37;;
28834;SDS011;15969;51.536;11.884;2022-12-24T03:37:42;6.13;;;2.13;;
28834;SDS011;15969;51.536;11.884;2022-12-24T03:40:08;6.00;;;2.20;;
28834;SDS011;15969;51.536;11.884;2022-12-24T03:42:34;9.20;;;2.33;;
28834;SDS011;15969;51.536;11.884;2022-12-24T03:45:00;7.40;;;2.10;;
28834;SDS011;15969;51.536;11.884;2022-12-24T03:47:26;5.87;;;1.97;;
28834;SDS011;15969;51.536;11.884;2022-12-24T03:49:51;4.77;;;1.90;;
28834;SDS011;15969;51.536;11.884;2022-12-24T03:52:17;6.87;;;2.17;;
28834;SDS011;15969;51.536;11.884;2022-12-24T03:54:43;5.30;;;1.60;;
28834;SDS011;15969;51.536;11.884;2022-12-24T03:57:08;8.43;;;1.87;;
28834;SDS011;15969;51.536;11.884;2022-12-24T03:59:34;4.80;;;2.27;;
28834;SDS011;15969;51.536;11.884;2022-12-24T04:01:59;6.97;;;2.00;;
28834;SDS011;15969;51.536;11.884;2022-12-24T04:04:25;6.30;;;2.10;;
28834;SDS011;15969;51.536;11.884;2022-12-24T04:06:51;3.93;;;1.97;;
28834;SDS011;15969;51.536;11.884;2022-12-24T04:09:17;6.57;;;2.07;;
28834;SDS011;15969;51.536;11.884;2022-12-24T04:11:42;7.87;;;2.07;;
28834;SDS011;15969;51.536;11.884;2022-12-24T04:14:08;9.47;;;2.57;;
28834;SDS011;15969;51.536;11.884;2022-12-24T04:16:34;5.70;;;1.70;;
28834;SDS011;15969;51.536;11.884;2022-12-24T04:18:59;5.33;;;1.73;;
28834;SDS011;15969;51.536;11.884;2022-12-24T04:21:25;7.60;;;2.00;;
28834;SDS011;15969;51.536;11.884;2022-12-24T04:23:50;4.70;;;1.70;;
28834;SDS011;15969;51.536;11.884;2022-12-24T04:26:16;3.73;;;1.97;;
28834;SDS011;15969;51.536;11.884;2022-12-24T04:28:42;3.90;;;1.80;;
28834;SDS011;15969;51.536;11.884;2022-12-24T04:31:09;5.57;;;1.80;;
28834;SDS011;15969;51.536;11.884;2022-12-24T04:33:37;7.73;;;2.13;;
28834;SDS011;15969;51.536;11.884;2022-12-24T04:36:04;5.10;;;1.70;;
28834;SDS011;15969;51.536;11.884;2022-12-24T04:38:31;6.87;;;2.23;;
28834;SDS011;15969;51.536;11.884;2022-12-24T04:43:29;4.60;;;1.80;;
28834;SDS011;15969;51.536;11.884;2022-12-24T04:45:55;6.10;;;2.43;;
28834;SDS011;15969;51.536;11.884;2022-12-24T04:48:28;3.20;;;1.40;;
28834;SDS011;15969;51.536;11.884;2022-12-24T04:50:54;5.97;;;1.73;;
28834;SDS011;15969;51.536;11.884;2022-12-24T04:53:19;8.97;;;1.83;;
28834;SDS011;15969;51.536;11.884;2022-12-24T04:55:45;4.50;;;1.53;;
28834;SDS011;15969;51.536;11.884;2022-12-24T04:58:11;5.57;;;1.77;;
28834;SDS011;15969;51.536;11.884;2022-12-24T05:00:38;8.13;;;2.03;;
28834;SDS011;15969;51.536;11.884;2022-12-24T05:03:05;5.10;;;1.90;;
28834;SDS011;15969;51.536;11.884;2022-12-24T05:05:31;5.73;;;2.00;;
28834;SDS011;15969;51.536;11.884;2022-12-24T05:07:56;6.00;;;2.00;;
28834;SDS011;15969;51.536;11.884;2022-12-24T05:10:22;9.17;;;2.57;;
28834;SDS011;15969;51.536;11.884;2022-12-24T05:12:48;6.17;;;2.10;;
28834;SDS011;15969;51.536;11.884;2022-12-24T05:15:13;7.33;;;1.83;;
28834;SDS011;15969;51.536;11.884;2022-12-24T05:17:39;5.30;;;2.27;;
28834;SDS011;15969;51.536;11.884;2022-12-24T05:20:05;7.97;;;2.13;;
28834;SDS011;15969;51.536;11.884;2022-12-24T05:22:31;6.00;;;2.03;;
28834;SDS011;15969;51.536;11.884;2022-12-24T05:25:16;4.70;;;1.83;;
28834;SDS011;15969;51.536;11.884;2022-12-24T05:28:01;3.63;;;1.93;;
28834;SDS011;15969;51.536;11.884;2022-12-24T05:30:29;7.77;;;1.77;;
28834;SDS011;15969;51.536;11.884;2022-12-24T05:32:55;7.67;;;2.23;;
28834;SDS011;15969;51.536;11.884;2022-12-24T05:35:20;5.23;;;1.90;;
28834;SDS011;15969;51.536;11.884;2022-12-24T05:37:46;7.80;;;1.97;;
28834;SDS011;15969;51.536;11.884;2022-12-24T05:40:12;5.73;;;2.20;;
28834;SDS011;15969;51.536;11.884;2022-12-24T05:42:37;7.47;;;2.20;;
28834;SDS011;15969;51.536;11.884;2022-12-24T05:45:03;8.10;;;2.03;;
28834;SDS011;15969;51.536;11.884;2022-12-24T05:47:29;6.33;;;2.20;;
28834;SDS011;15969;51.536;11.884;2022-12-24T05:49:55;9.87;;;2.37;;
28834;SDS011;15969;51.536;11.884;2022-12-24T05:52:21;6.50;;;2.40;;
28834;SDS011;15969;51.536;11.884;2022-12-24T05:54:46;6.77;;;2.30;;
28834;SDS011;15969;51.536;11.884;2022-12-24T05:57:12;5.30;;;1.93;;
28834;SDS011;15969;51.536;11.884;2022-12-24T05:59:38;7.57;;;2.60;;
28834;SDS011;15969;51.536;11.884;2022-12-24T06:02:03;4.70;;;2.33;;
28834;SDS011;15969;51.536;11.884;2022-12-24T06:04:29;9.57;;;3.07;;
28834;SDS011;15969;51.536;11.884;2022-12-24T06:06:55;7.77;;;2.47;;
28834;SDS011;15969;51.536;11.884;2022-12-24T06:09:20;9.43;;;2.23;;
28834;SDS011;15969;51.536;11.884;2022-12-24T06:11:46;9.00;;;2.60;;
28834;SDS011;15969;51.536;11.884;2022-12-24T06:14:12;8.50;;;2.87;;
28834;SDS011;15969;51.536;11.884;2022-12-24T06:16:37;8.83;;;2.77;;
28834;SDS011;15969;51.536;11.884;2022-12-24T06:19:03;7.97;;;2.20;;
28834;SDS011;15969;51.536;11.884;2022-12-24T06:21:29;5.37;;;2.33;;
28834;SDS011;15969;51.536;11.884;2022-12-24T06:23:54;9.60;;;2.50;;
28834;SDS011;15969;51.536;11.884;2022-12-24T06:26:21;6.33;;;2.53;;
28834;SDS011;15969;51.536;11.884;2022-12-24T06:28:48;6.40;;;2.60;;
28834;SDS011;15969;51.536;11.884;2022-12-24T06:31:16;9.03;;;2.37;;
28834;SDS011;15969;51.536;11.884;2022-12-24T06:33:44;10.93;;;2.33;;
28834;SDS011;15969;51.536;11.884;2022-12-24T06:36:14;5.30;;;1.83;;
28834;SDS011;15969;51.536;11.884;2022-12-24T06:38:48;8.20;;;2.40;;
28834;SDS011;15969;51.536;11.884;2022-12-24T06:41:15;8.40;;;2.03;;
28834;SDS011;15969;51.536;11.884;2022-12-24T06:43:45;6.83;;;2.40;;
28834;SDS011;15969;51.536;11.884;2022-12-24T06:46:13;4.53;;;1.93;;
28834;SDS011;15969;51.536;11.884;2022-12-24T06:48:39;5.97;;;2.03;;
28834;SDS011;15969;51.536;11.884;2022-12-24T06:51:06;7.03;;;2.37;;
28834;SDS011;15969;51.536;11.884;2022-12-24T06:53:32;8.60;;;2.40;;
28834;SDS011;15969;51.536;11.884;2022-12-24T06:56:02;7.30;;;2.20;;
28834;SDS011;15969;51.536;11.884;2022-12-24T06:58:33;10.43;;;2.70;;
28834;SDS011;15969;51.536;11.884;2022-12-24T07:01:00;9.43;;;2.77;;
28834;SDS011;15969;51.536;11.884;2022-12-24T07:03:28;7.50;;;2.80;;
28834;SDS011;15969;51.536;11.884;2022-12-24T07:05:54;13.93;;;3.40;;
28834;SDS011;15969;51.536;11.884;2022-12-24T07:08:19;11.73;;;2.63;;
28834;SDS011;15969;51.536;11.884;2022-12-24T07:10:47;8.97;;;2.87;;
28834;SDS011;15969;51.536;11.884;2022-12-24T07:13:14;7.83;;;2.27;;
28834;SDS011;15969;51.536;11.884;2022-12-24T07:15:40;8.07;;;3.00;;
28834;SDS011;15969;51.536;11.884;2022-12-24T07:18:05;13.03;;;5.63;;
28834;SDS011;15969;51.536;11.884;2022-12-24T07:20:31;7.10;;;3.33;;
28834;SDS011;15969;51.536;11.884;2022-12-24T07:22:57;11.63;;;2.73;;
28834;SDS011;15969;51.536;11.884;2022-12-24T07:25:22;7.87;;;2.60;;
28834;SDS011;15969;51.536;11.884;2022-12-24T07:27:48;9.40;;;2.43;;
28834;SDS011;15969;51.536;11.884;2022-12-24T07:30:14;7.67;;;2.40;;
28834;SDS011;15969;51.536;11.884;2022-12-24T07:32:39;9.70;;;2.73;;
28834;SDS011;15969;51.536;11.884;2022-12-24T07:35:05;11.67;;;3.13;;
28834;SDS011;15969;51.536;11.884;2022-12-24T07:37:31;7.70;;;3.43;;
28834;SDS011;15969;51.536;11.884;2022-12-24T07:39:57;10.33;;;2.70;;
28834;SDS011;15969;51.536;11.884;2022-12-24T07:42:22;8.87;;;2.30;;
28834;SDS011;15969;51.536;11.884;2022-12-24T07:44:48;11.80;;;2.87;;
28834;SDS011;15969;51.536;11.884;2022-12-24T07:47:14;10.60;;;3.00;;
28834;SDS011;15969;51.536;11.884;2022-12-24T07:49:40;12.60;;;2.70;;
28834;SDS011;15969;51.536;11.884;2022-12-24T07:52:05;8.93;;;2.50;;
28834;SDS011;15969;51.536;11.884;2022-12-24T07:54:31;7.73;;;2.80;;
28834;SDS011;15969;51.536;11.884;2022-12-24T07:56:57;10.80;;;2.47;;
28834;SDS011;15969;51.536;11.884;2022-12-24T07:59:23;10.00;;;2.60;;
28834;SDS011;15969;51.536;11.884;2022-12-24T08:01:48;8.07;;;2.40;;
28834;SDS011;15969;51.536;11.884;2022-12-24T08:04:14;10.10;;;3.10;;
28834;SDS011;15969;51.536;11.884;2022-12-24T08:06:40;7.43;;;2.47;;
28834;SDS011;15969;51.536;11.884;2022-12-24T08:09:05;11.90;;;3.03;;
28834;SDS011;15969;51.536;11.884;2022-12-24T08:11:31;12.23;;;2.97;;
28834;SDS011;15969;51.536;11.884;2022-12-24T08:13:57;10.23;;;3.27;;
28834;SDS011;15969;51.536;11.884;2022-12-24T08:16:22;14.07;;;3.20;;
28834;SDS011;15969;51.536;11.884;2022-12-24T08:18:48;9.97;;;2.80;;
28834;SDS011;15969;51.536;11.884;2022-12-24T08:21:14;10.50;;;3.47;;
28834;SDS011;15969;51.536;11.884;2022-12-24T08:23:39;12.67;;;3.03;;
28834;SDS011;15969;51.536;11.884;2022-12-24T08:26:05;8.03;;;2.80;;
28834;SDS011;15969;51.536;11.884;2022-12-24T08:28:33;13.07;;;3.27;;
28834;SDS011;15969;51.536;11.884;2022-12-24T08:30:59;12.50;;;3.60;;
28834;SDS011;15969;51.536;11.884;2022-12-24T08:33:25;9.27;;;3.03;;
28834;SDS011;15969;51.536;11.884;2022-12-24T08:35:51;8.47;;;2.47;;
28834;SDS011;15969;51.536;11.884;2022-12-24T08:38:19;10.97;;;3.67;;
28834;SDS011;15969;51.536;11.884;2022-12-24T08:40:45;10.57;;;2.50;;
28834;SDS011;15969;51.536;11.884;2022-12-24T08:43:12;12.43;;;2.70;;
28834;SDS011;15969;51.536;11.884;2022-12-24T08:45:38;8.30;;;2.67;;
28834;SDS011;15969;51.536;11.884;2022-12-24T08:48:05;11.33;;;3.10;;
28834;SDS011;15969;51.536;11.884;2022-12-24T08:50:31;7.97;;;3.20;;
28834;SDS011;15969;51.536;11.884;2022-12-24T08:52:57;12.73;;;2.83;;
28834;SDS011;15969;51.536;11.884;2022-12-24T08:55:24;10.07;;;2.77;;
28834;SDS011;15969;51.536;11.884;2022-12-24T08:57:50;7.73;;;2.83;;
28834;SDS011;15969;51.536;11.884;2022-12-24T09:00:15;10.30;;;2.40;;
28834;SDS011;15969;51.536;11.884;2022-12-24T09:02:42;15.80;;;2.80;;
28834;SDS011;15969;51.536;11.884;2022-12-24T09:05:07;10.03;;;2.90;;
28834;SDS011;15969;51.536;11.884;2022-12-24T09:07:33;9.97;;;3.10;;
28834;SDS011;15969;51.536;11.884;2022-12-24T09:10:00;17.37;;;3.60;;
28834;SDS011;15969;51.536;11.884;2022-12-24T09:12:25;12.03;;;3.30;;
28834;SDS011;15969;51.536;11.884;2022-12-24T09:14:51;13.43;;;2.77;;
28834;SDS011;15969;51.536;11.884;2022-12-24T09:17:18;17.27;;;3.47;;
28834;SDS011;15969;51.536;11.884;2022-12-24T09:19:44;9.40;;;2.57;;
28834;SDS011;15969;51.536;11.884;2022-12-24T09:22:10;10.53;;;3.10;;
28834;SDS011;15969;51.536;11.884;2022-12-24T09:24:36;9.30;;;2.50;;
28834;SDS011;15969;51.536;11.884;2022-12-24T09:27:02;10.30;;;3.40;;
28834;SDS011;15969;51.536;11.884;2022-12-24T09:29:28;9.67;;;2.83;;
28834;SDS011;15969;51.536;11.884;2022-12-24T09:31:55;13.93;;;3.80;;
28834;SDS011;15969;51.536;11.884;2022-12-24T09:34:21;9.47;;;2.90;;
28834;SDS011;15969;51.536;11.884;2022-12-24T09:36:48;15.33;;;2.93;;
28834;SDS011;15969;51.536;11.884;2022-12-24T09:39:15;10.43;;;3.10;;
28834;SDS011;15969;51.536;11.884;2022-12-24T09:42:01;7.70;;;2.60;;
28834;SDS011;15969;51.536;11.884;2022-12-24T09:49:59;12.77;;;4.20;;
28834;SDS011;15969;51.536;11.884;2022-12-24T09:52:29;8.77;;;3.23;;
28834;SDS011;15969;51.536;11.884;2022-12-24T09:55:02;5.73;;;2.63;;
28834;SDS011;15969;51.536;11.884;2022-12-24T09:57:40;8.93;;;2.93;;
28834;SDS011;15969;51.536;11.884;2022-12-24T10:00:15;13.93;;;3.03;;
28834;SDS011;15969;51.536;11.884;2022-12-24T10:02:47;12.30;;;3.87;;
28834;SDS011;15969;51.536;11.884;2022-12-24T10:05:13;11.67;;;3.60;;
28834;SDS011;15969;51.536;11.884;2022-12-24T10:07:46;11.80;;;3.17;;
28834;SDS011;15969;51.536;11.884;2022-12-24T10:13:03;11.87;;;2.40;;
28834;SDS011;15969;51.536;11.884;2022-12-24T10:15:59;10.37;;;2.83;;
28834;SDS011;15969;51.536;11.884;2022-12-24T10:21:30;12.23;;;2.93;;
28834;SDS011;15969;51.536;11.884;2022-12-24T10:27:13;16.37;;;3.07;;
28834;SDS011;15969;51.536;11.884;2022-12-24T10:29:48;11.67;;;3.07;;
28834;SDS011;15969;51.536;11.884;2022-12-24T10:32:22;11.10;;;2.77;;
28834;SDS011;15969;51.536;11.884;2022-12-24T10:35:00;11.53;;;2.47;;
28834;SDS011;15969;51.536;11.884;2022-12-24T10:37:39;6.93;;;2.40;;
28834;SDS011;15969;51.536;11.884;2022-12-24T10:40:13;8.50;;;2.37;;
28834;SDS011;15969;51.536;11.884;2022-12-24T10:42:51;14.97;;;2.70;;
28834;SDS011;15969;51.536;11.884;2022-12-24T10:45:18;9.57;;;2.50;;
28834;SDS011;15969;51.536;11.884;2022-12-24T10:47:47;9.50;;;2.40;;
28834;SDS011;15969;51.536;11.884;2022-12-24T10:53:31;11.80;;;2.13;;
28834;SDS011;15969;51.536;11.884;2022-12-24T10:56:05;8.97;;;2.53;;
28834;SDS011;15969;51.536;11.884;2022-12-24T10:58:35;8.17;;;2.63;;
28834;SDS011;15969;51.536;11.884;2022-12-24T11:01:01;6.80;;;2.10;;
28834;SDS011;15969;51.536;11.884;2022-12-24T11:03:32;6.87;;;2.33;;
28834;SDS011;15969;51.536;11.884;2022-12-24T11:06:01;9.73;;;2.33;;
28834;SDS011;15969;51.536;11.884;2022-12-24T11:08:44;8.00;;;2.47;;
28834;SDS011;15969;51.536;11.884;2022-12-24T11:11:11;8.47;;;2.83;;
28834;SDS011;15969;51.536;11.884;2022-12-24T11:16:20;8.50;;;2.47;;
28834;SDS011;15969;51.536;11.884;2022-12-24T11:18:54;7.40;;;1.60;;
28834;SDS011;15969;51.536;11.884;2022-12-24T11:21:29;7.50;;;2.33;;
28834;SDS011;15969;51.536;11.884;2022-12-24T11:26:32;8.60;;;2.10;;
28834;SDS011;15969;51.536;11.884;2022-12-24T11:29:05;7.53;;;2.53;;
28834;SDS011;15969;51.536;11.884;2022-12-24T11:31:48;4.67;;;1.70;;
28834;SDS011;15969;51.536;11.884;2022-12-24T11:34:18;6.13;;;1.50;;
28834;SDS011;15969;51.536;11.884;2022-12-24T11:36:56;5.13;;;2.10;;
28834;SDS011;15969;51.536;11.884;2022-12-24T11:39:40;6.50;;;2.10;;
28834;SDS011;15969;51.536;11.884;2022-12-24T11:42:22;8.57;;;2.47;;
28834;SDS011;15969;51.536;11.884;2022-12-24T11:45:03;10.20;;;2.70;;
28834;SDS011;15969;51.536;11.884;2022-12-24T11:47:41;9.73;;;1.97;;
28834;SDS011;15969;51.536;11.884;2022-12-24T11:52:58;7.07;;;2.17;;
28834;SDS011;15969;51.536;11.884;2022-12-24T11:55:35;3.93;;;1.83;;
28834;SDS011;15969;51.536;11.884;2022-12-24T11:58:29;5.83;;;2.10;;
28834;SDS011;15969;51.536;11.884;2022-12-24T12:01:15;4.80;;;1.90;;
28834;SDS011;15969;51.536;11.884;2022-12-24T12:03:52;7.47;;;2.00;;
28834;SDS011;15969;51.536;11.884;2022-12-24T12:06:25;5.73;;;2.00;;
28834;SDS011;15969;51.536;11.884;2022-12-24T12:08:56;7.80;;;2.20;;
28834;SDS011;15969;51.536;11.884;2022-12-24T12:11:27;8.63;;;2.30;;
28834;SDS011;15969;51.536;11.884;2022-12-24T12:13:54;5.40;;;2.07;;
28834;SDS011;15969;51.536;11.884;2022-12-24T12:16:27;7.27;;;2.30;;
28834;SDS011;15969;51.536;11.884;2022-12-24T12:19:19;6.23;;;1.80;;
28834;SDS011;15969;51.536;11.884;2022-12-24T12:21:48;7.20;;;2.37;;
28834;SDS011;15969;51.536;11.884;2022-12-24T12:24:18;3.80;;;1.93;;
28834;SDS011;15969;51.536;11.884;2022-12-24T12:27:02;8.27;;;2.30;;
28834;SDS011;15969;51.536;11.884;2022-12-24T12:30:08;4.47;;;2.00;;
28834;SDS011;15969;51.536;11.884;2022-12-24T12:32:58;4.90;;;2.07;;
28834;SDS011;15969;51.536;11.884;2022-12-24T12:35:41;7.23;;;1.80;;
28834;SDS011;15969;51.536;11.884;2022-12-24T12:41:10;5.87;;;2.23;;
28834;SDS011;15969;51.536;11.884;2022-12-24T12:50:02;6.53;;;2.23;;
28834;SDS011;15969;51.536;11.884;2022-12-24T13:01:45;6.40;;;2.30;;
28834;SDS011;15969;51.536;11.884;2022-12-24T13:13:16;5.80;;;2.00;;
28834;SDS011;15969;51.536;11.884;2022-12-24T13:16:15;13.90;;;2.70;;
28834;SDS011;15969;51.536;11.884;2022-12-24T13:21:49;6.77;;;2.67;;
28834;SDS011;15969;51.536;11.884;2022-12-24T13:24:22;8.67;;;2.33;;
28834;SDS011;15969;51.536;11.884;2022-12-24T13:27:03;6.03;;;2.10;;
28834;SDS011;15969;51.536;11.884;2022-12-24T13:29:59;3.73;;;1.40;;
28834;SDS011;15969;51.536;11.884;2022-12-24T13:33:01;4.10;;;1.47;;
28834;SDS011;15969;51.536;11.884;2022-12-24T13:35:29;3.20;;;1.57;;
28834;SDS011;15969;51.536;11.884;2022-12-24T13:38:32;3.13;;;1.10;;
28834;SDS011;15969;51.536;11.884;2022-12-24T13:40:52;2.47;;;1.10;;
28834;SDS011;15969;51.536;11.884;2022-12-24T13:43:19;2.00;;;1.00;;
28834;SDS011;15969;51.536;11.884;2022-12-24T13:45:46;4.37;;;1.30;;
28834;SDS011;15969;51.536;11.884;2022-12-24T13:48:31;2.53;;;1.20;;
28834;SDS011;15969;51.536;11.884;2022-12-24T13:50:59;19.43;;;17.87;;
28834;SDS011;15969;51.536;11.884;2022-12-24T13:53:43;1.60;;;0.90;;
28834;SDS011;15969;51.536;11.884;2022-12-24T13:58:37;2.43;;;1.00;;
28834;SDS011;15969;51.536;11.884;2022-12-24T14:01:08;1.50;;;1.10;;
28834;SDS011;15969;51.536;11.884;2022-12-24T14:03:49;2.40;;;0.90;;
28834;SDS011;15969;51.536;11.884;2022-12-24T14:06:26;2.87;;;1.23;;
28834;SDS011;15969;51.536;11.884;2022-12-24T14:14:32;2.60;;;1.20;;
28834;SDS011;15969;51.536;11.884;2022-12-24T14:17:14;2.03;;;1.00;;
28834;SDS011;15969;51.536;11.884;2022-12-24T14:19:55;2.27;;;1.23;;
28834;SDS011;15969;51.536;11.884;2022-12-24T14:25:00;3.40;;;1.23;;
28834;SDS011;15969;51.536;11.884;2022-12-24T14:27:42;2.10;;;1.30;;
28834;SDS011;15969;51.536;11.884;2022-12-24T14:32:46;2.27;;;1.20;;
28834;SDS011;15969;51.536;11.884;2022-12-24T14:35:14;1.70;;;1.27;;
28834;SDS011;15969;51.536;11.884;2022-12-24T14:37:48;1.43;;;0.90;;
28834;SDS011;15969;51.536;11.884;2022-12-24T14:43:44;1.53;;;1.00;;
28834;SDS011;15969;51.536;11.884;2022-12-24T14:46:52;1.63;;;1.20;;
28834;SDS011;15969;51.536;11.884;2022-12-24T14:49:53;1.67;;;1.10;;
28834;SDS011;15969;51.536;11.884;2022-12-24T14:52:56;3.63;;;1.60;;
28834;SDS011;15969;51.536;11.884;2022-12-24T14:55:46;2.47;;;1.17;;
28834;SDS011;15969;51.536;11.884;2022-12-24T14:58:17;1.70;;;1.00;;
28834;SDS011;15969;51.536;11.884;2022-12-24T15:00:56;2.53;;;1.30;;
28834;SDS011;15969;51.536;11.884;2022-12-24T15:03:26;3.13;;;1.30;;
28834;SDS011;15969;51.536;11.884;2022-12-24T15:05:56;1.97;;;1.33;;
28834;SDS011;15969;51.536;11.884;2022-12-24T15:08:32;2.10;;;1.37;;
28834;SDS011;15969;51.536;11.884;2022-12-24T15:11:05;3.07;;;1.23;;
28834;SDS011;15969;51.536;11.884;2022-12-24T15:13:34;4.47;;;1.90;;
28834;SDS011;15969;51.536;11.884;2022-12-24T15:16:13;2.93;;;1.50;;
28834;SDS011;15969;51.536;11.884;2022-12-24T15:18:48;3.67;;;1.37;;
28834;SDS011;15969;51.536;11.884;2022-12-24T15:21:25;1.90;;;1.17;;
28834;SDS011;15969;51.536;11.884;2022-12-24T15:26:59;3.90;;;1.10;;
28834;SDS011;15969;51.536;11.884;2022-12-24T15:29:30;2.53;;;1.00;;
28834;SDS011;15969;51.536;11.884;2022-12-24T15:31:58;2.00;;;1.07;;
28834;SDS011;15969;51.536;11.884;2022-12-24T15:34:27;2.87;;;1.47;;
28834;SDS011;15969;51.536;11.884;2022-12-24T15:37:13;2.60;;;1.30;;
28834;SDS011;15969;51.536;11.884;2022-12-24T15:39:54;2.50;;;1.40;;
28834;SDS011;15969;51.536;11.884;2022-12-24T15:42:34;1.37;;;1.27;;
28834;SDS011;15969;51.536;11.884;2022-12-24T15:47:32;1.53;;;1.17;;
28834;SDS011;15969;51.536;11.884;2022-12-24T15:52:40;2.83;;;1.57;;
28834;SDS011;15969;51.536;11.884;2022-12-24T15:58:24;3.20;;;1.57;;
28834;SDS011;15969;51.536;11.884;2022-12-24T16:01:00;2.90;;;1.57;;
28834;SDS011;15969;51.536;11.884;2022-12-24T16:03:28;2.93;;;1.60;;
28834;SDS011;15969;51.536;11.884;2022-12-24T16:05:58;3.23;;;1.97;;
28834;SDS011;15969;51.536;11.884;2022-12-24T16:08:35;2.87;;;1.80;;
28834;SDS011;15969;51.536;11.884;2022-12-24T16:11:07;3.90;;;2.10;;
28834;SDS011;15969;51.536;11.884;2022-12-24T16:16:16;2.67;;;1.73;;
28834;SDS011;15969;51.536;11.884;2022-12-24T16:18:55;2.43;;;1.87;;
28834;SDS011;15969;51.536;11.884;2022-12-24T16:21:24;2.53;;;1.77;;
28834;SDS011;15969;51.536;11.884;2022-12-24T16:24:03;3.37;;;2.10;;
28834;SDS011;15969;51.536;11.884;2022-12-24T16:26:38;2.37;;;2.00;;
28834;SDS011;15969;51.536;11.884;2022-12-24T16:29:05;3.30;;;2.03;;
28834;SDS011;15969;51.536;11.884;2022-12-24T16:31:50;3.33;;;2.40;;
28834;SDS011;15969;51.536;11.884;2022-12-24T16:34:19;3.50;;;2.53;;
28834;SDS011;15969;51.536;11.884;2022-12-24T16:36:49;8.97;;;4.10;;
28834;SDS011;15969;51.536;11.884;2022-12-24T16:39:16;8.13;;;3.93;;
28834;SDS011;15969;51.536;11.884;2022-12-24T16:41:48;9.10;;;4.87;;
28834;SDS011;15969;51.536;11.884;2022-12-24T16:44:44;16.57;;;7.10;;